sensor_id;sensor_type;location;lat;lon;timestamp;pressure;altitude;pressure_sealevel;temperature;humidity
79663;BME280;69130;48.724;8.982;2023-07-31T00:02:16;95938.63;;;13.79;100.00
79663;BME280;69130;48.724;8.982;2023-07-31T00:04:42;95918.88;;;13.81;100.00
79663;BME280;69130;48.724;8.982;2023-07-31T00:07:07;95841.75;;;13.72;100.00
79663;BME280;69130;48.724;8.982;2023-07-31T00:09:33;95892.59;;;13.78;100.00
79663;BME280;69130;48.724;8.982;2023-07-31T00:11:58;95928.81;;;13.79;100.00
79663;BME280;69130;48.724;8.982;2023-07-31T00:14:24;96030.84;;;13.78;100.00
79663;BME280;69130;48.724;8.982;2023-07-31T00:16:49;96000.72;;;13.68;100.00
79663;BME280;69130;48.724;8.982;2023-07-31T00:19:15;96012.22;;;13.69;100.00
79663;BME280;69130;48.724;8.982;2023-07-31T00:21:40;95990.50;;;13.64;100.00
79663;BME280;69130;48.724;8.982;2023-07-31T00:24:05;95889.03;;;13.59;100.00
79663;BME280;69130;48.724;8.982;2023-07-31T00:26:31;95909.59;;;13.57;100.00
79663;BME280;69130;48.724;8.982;2023-07-31T00:28:56;95924.00;;;13.54;100.00
79663;BME280;69130;48.724;8.982;2023-07-31T00:31:21;95919.78;;;13.52;100.00
79663;BME280;69130;48.724;8.982;2023-07-31T00:33:47;95931.84;;;13.56;100.00
79663;BME280;69130;48.724;8.982;2023-07-31T00:36:12;95921.72;;;13.40;100.00
79663;BME280;69130;48.724;8.982;2023-07-31T00:38:37;95912.53;;;13.54;100.00
79663;BME280;69130;48.724;8.982;2023-07-31T00:41:03;95902.44;;;13.48;100.00
79663;BME280;69130;48.724;8.982;2023-07-31T00:43:28;95893.75;;;13.46;100.00
79663;BME280;69130;48.724;8.982;2023-07-31T00:45:53;95909.59;;;13.47;100.00
79663;BME280;69130;48.724;8.982;2023-07-31T00:48:19;95912.66;;;13.52;100.00
79663;BME280;69130;48.724;8.982;2023-07-31T00:50:44;95880.88;;;13.32;100.00
79663;BME280;69130;48.724;8.982;2023-07-31T00:53:10;95903.59;;;13.55;100.00
79663;BME280;69130;48.724;8.982;2023-07-31T00:55:36;95878.78;;;13.35;100.00
79663;BME280;69130;48.724;8.982;2023-07-31T00:58:01;95803.66;;;13.33;100.00
79663;BME280;69130;48.724;8.982;2023-07-31T01:00:26;95767.56;;;13.31;100.00
79663;BME280;69130;48.724;8.982;2023-07-31T01:02:52;95563.97;;;13.20;100.00
79663;BME280;69130;48.724;8.982;2023-07-31T01:05:25;95819.44;;;13.16;100.00
79663;BME280;69130;48.724;8.982;2023-07-31T01:08:05;95934.06;;;13.11;100.00
79663;BME280;69130;48.724;8.982;2023-07-31T01:10:44;95947.50;;;13.19;100.00
79663;BME280;69130;48.724;8.982;2023-07-31T01:13:11;95982.13;;;13.08;100.00
79663;BME280;69130;48.724;8.982;2023-07-31T01:15:37;96023.72;;;13.19;100.00
79663;BME280;69130;48.724;8.982;2023-07-31T01:18:03;96035.75;;;13.23;100.00
79663;BME280;69130;48.724;8.982;2023-07-31T01:20:30;96046.91;;;13.17;100.00
79663;BME280;69130;48.724;8.982;2023-07-31T01:23:50;96062.19;;;13.24;100.00
79663;BME280;69130;48.724;8.982;2023-07-31T01:28:54;96054.44;;;13.11;100.00
79663;BME280;69130;48.724;8.982;2023-07-31T01:31:24;96060.28;;;13.05;100.00
79663;BME280;69130;48.724;8.982;2023-07-31T01:33:52;96059.28;;;13.27;100.00
79663;BME280;69130;48.724;8.982;2023-07-31T01:36:19;96066.03;;;13.10;100.00
79663;BME280;69130;48.724;8.982;2023-07-31T01:38:44;96072.44;;;13.29;100.00
79663;BME280;69130;48.724;8.982;2023-07-31T01:41:09;96106.25;;;13.27;100.00
79663;BME280;69130;48.724;8.982;2023-07-31T01:43:35;96142.31;;;13.40;100.00
79663;BME280;69130;48.724;8.982;2023-07-31T01:46:00;96137.06;;;13.29;100.00
79663;BME280;69130;48.724;8.982;2023-07-31T01:48:25;96160.44;;;13.14;100.00
79663;BME280;69130;48.724;8.982;2023-07-31T01:50:51;96138.53;;;13.22;100.00
79663;BME280;69130;48.724;8.982;2023-07-31T01:53:17;96131.63;;;13.10;100.00
79663;BME280;69130;48.724;8.982;2023-07-31T01:55:42;96140.91;;;13.04;100.00
79663;BME280;69130;48.724;8.982;2023-07-31T01:58:07;96133.56;;;13.08;100.00
79663;BME280;69130;48.724;8.982;2023-07-31T02:00:33;96167.69;;;13.01;100.00
79663;BME280;69130;48.724;8.982;2023-07-31T02:02:59;96189.34;;;13.08;100.00
79663;BME280;69130;48.724;8.982;2023-07-31T02:05:25;96199.25;;;13.06;100.00
79663;BME280;69130;48.724;8.982;2023-07-31T02:07:50;96189.44;;;13.06;100.00
79663;BME280;69130;48.724;8.982;2023-07-31T02:10:16;96186.41;;;13.11;100.00
79663;BME280;69130;48.724;8.982;2023-07-31T02:12:42;96196.91;;;13.12;100.00
79663;BME280;69130;48.724;8.982;2023-07-31T02:15:07;96161.00;;;13.18;100.00
79663;BME280;69130;48.724;8.982;2023-07-31T02:17:32;96146.28;;;13.14;100.00
79663;BME280;69130;48.724;8.982;2023-07-31T02:19:58;96156.16;;;13.23;100.00
79663;BME280;69130;48.724;8.982;2023-07-31T02:22:23;96108.22;;;13.25;100.00
79663;BME280;69130;48.724;8.982;2023-07-31T02:24:48;96203.16;;;13.23;100.00
79663;BME280;69130;48.724;8.982;2023-07-31T02:27:14;96173.03;;;13.33;100.00
79663;BME280;69130;48.724;8.982;2023-07-31T02:29:39;96197.47;;;13.27;100.00
79663;BME280;69130;48.724;8.982;2023-07-31T02:32:04;96182.09;;;13.31;100.00
79663;BME280;69130;48.724;8.982;2023-07-31T02:34:30;96161.28;;;13.15;100.00
79663;BME280;69130;48.724;8.982;2023-07-31T02:36:55;96170.09;;;13.36;100.00
79663;BME280;69130;48.724;8.982;2023-07-31T02:39:21;96163.78;;;13.28;100.00
79663;BME280;69130;48.724;8.982;2023-07-31T02:41:46;96179.16;;;13.13;100.00
79663;BME280;69130;48.724;8.982;2023-07-31T02:44:12;96197.03;;;13.11;100.00
79663;BME280;69130;48.724;8.982;2023-07-31T02:46:39;96209.47;;;13.10;100.00
79663;BME280;69130;48.724;8.982;2023-07-31T02:49:05;96145.06;;;13.18;100.00
79663;BME280;69130;48.724;8.982;2023-07-31T02:51:30;96111.75;;;13.14;100.00
79663;BME280;69130;48.724;8.982;2023-07-31T02:53:55;96145.47;;;13.13;100.00
79663;BME280;69130;48.724;8.982;2023-07-31T02:56:21;96158.84;;;13.23;100.00
79663;BME280;69130;48.724;8.982;2023-07-31T02:58:46;96179.56;;;12.97;100.00
79663;BME280;69130;48.724;8.982;2023-07-31T03:01:12;96212.50;;;12.95;100.00
79663;BME280;69130;48.724;8.982;2023-07-31T03:03:37;96257.53;;;12.96;100.00
79663;BME280;69130;48.724;8.982;2023-07-31T03:06:02;96345.31;;;12.84;100.00
79663;BME280;69130;48.724;8.982;2023-07-31T03:08:28;97238.06;;;12.78;100.00
79663;BME280;69130;48.724;8.982;2023-07-31T03:10:53;97259.94;;;12.81;100.00
79663;BME280;69130;48.724;8.982;2023-07-31T03:13:18;97358.97;;;12.97;100.00
79663;BME280;69130;48.724;8.982;2023-07-31T03:15:44;97347.22;;;12.87;100.00
79663;BME280;69130;48.724;8.982;2023-07-31T03:18:09;97333.06;;;12.87;100.00
79663;BME280;69130;48.724;8.982;2023-07-31T03:20:34;97272.34;;;12.95;100.00
79663;BME280;69130;48.724;8.982;2023-07-31T03:23:00;97240.81;;;13.03;100.00
79663;BME280;69130;48.724;8.982;2023-07-31T03:25:25;97249.56;;;12.91;100.00
79663;BME280;69130;48.724;8.982;2023-07-31T03:27:50;97288.69;;;12.75;100.00
79663;BME280;69130;48.724;8.982;2023-07-31T03:30:16;97267.44;;;12.75;100.00
79663;BME280;69130;48.724;8.982;2023-07-31T03:32:41;97315.34;;;12.73;100.00
79663;BME280;69130;48.724;8.982;2023-07-31T03:35:07;97338.38;;;12.73;100.00
79663;BME280;69130;48.724;8.982;2023-07-31T03:37:32;97595.09;;;12.88;100.00
79663;BME280;69130;48.724;8.982;2023-07-31T03:39:57;97703.59;;;12.80;100.00
79663;BME280;69130;48.724;8.982;2023-07-31T03:42:23;97700.41;;;12.89;100.00
79663;BME280;69130;48.724;8.982;2023-07-31T03:44:48;97757.50;;;12.82;100.00
79663;BME280;69130;48.724;8.982;2023-07-31T03:47:14;97800.50;;;12.73;100.00
79663;BME280;69130;48.724;8.982;2023-07-31T03:49:39;97806.53;;;12.76;100.00
79663;BME280;69130;48.724;8.982;2023-07-31T03:52:05;97878.28;;;12.75;100.00
79663;BME280;69130;48.724;8.982;2023-07-31T03:54:30;97916.38;;;12.91;100.00
79663;BME280;69130;48.724;8.982;2023-07-31T03:56:56;97865.22;;;13.03;100.00
79663;BME280;69130;48.724;8.982;2023-07-31T03:59:21;97865.41;;;13.00;100.00
79663;BME280;69130;48.724;8.982;2023-07-31T04:01:46;97863.75;;;12.97;100.00
79663;BME280;69130;48.724;8.982;2023-07-31T04:04:11;97799.59;;;13.05;100.00
79663;BME280;69130;48.724;8.982;2023-07-31T04:06:37;97819.91;;;13.06;100.00
79663;BME280;69130;48.724;8.982;2023-07-31T04:09:02;97795.25;;;13.02;100.00
79663;BME280;69130;48.724;8.982;2023-07-31T04:11:28;97761.59;;;13.03;100.00
79663;BME280;69130;48.724;8.982;2023-07-31T04:13:53;97800.00;;;12.97;100.00
79663;BME280;69130;48.724;8.982;2023-07-31T04:16:19;97857.63;;;13.12;100.00
79663;BME280;69130;48.724;8.982;2023-07-31T04:18:44;97827.16;;;13.02;100.00
79663;BME280;69130;48.724;8.982;2023-07-31T04:21:09;97873.84;;;13.08;100.00
79663;BME280;69130;48.724;8.982;2023-07-31T04:23:35;97791.09;;;13.14;100.00
79663;BME280;69130;48.724;8.982;2023-07-31T04:26:00;97782.41;;;13.26;100.00
79663;BME280;69130;48.724;8.982;2023-07-31T04:28:26;97804.63;;;13.25;100.00
79663;BME280;69130;48.724;8.982;2023-07-31T04:30:51;97818.69;;;13.27;100.00
79663;BME280;69130;48.724;8.982;2023-07-31T04:33:16;97706.06;;;13.58;100.00
79663;BME280;69130;48.724;8.982;2023-07-31T04:35:49;97663.22;;;13.48;100.00
79663;BME280;69130;48.724;8.982;2023-07-31T04:38:17;97660.34;;;13.37;100.00
79663;BME280;69130;48.724;8.982;2023-07-31T04:40:42;97705.91;;;13.31;100.00
79663;BME280;69130;48.724;8.982;2023-07-31T04:43:07;97734.19;;;13.32;100.00
79663;BME280;69130;48.724;8.982;2023-07-31T04:45:33;97699.38;;;13.37;100.00
79663;BME280;69130;48.724;8.982;2023-07-31T04:47:58;97701.78;;;13.41;100.00
79663;BME280;69130;48.724;8.982;2023-07-31T04:50:23;97670.56;;;13.59;100.00
79663;BME280;69130;48.724;8.982;2023-07-31T04:52:49;97677.94;;;13.54;100.00
79663;BME280;69130;48.724;8.982;2023-07-31T04:55:14;97658.19;;;13.58;100.00
79663;BME280;69130;48.724;8.982;2023-07-31T04:57:39;97636.84;;;13.59;100.00
79663;BME280;69130;48.724;8.982;2023-07-31T05:00:05;97631.97;;;13.66;100.00
79663;BME280;69130;48.724;8.982;2023-07-31T05:02:31;97618.28;;;13.72;100.00
79663;BME280;69130;48.724;8.982;2023-07-31T05:04:56;97572.50;;;13.81;100.00
79663;BME280;69130;48.724;8.982;2023-07-31T05:07:22;97582.28;;;13.80;100.00
79663;BME280;69130;48.724;8.982;2023-07-31T05:09:48;97515.56;;;13.83;100.00
79663;BME280;69130;48.724;8.982;2023-07-31T05:12:13;97502.97;;;13.73;100.00
79663;BME280;69130;48.724;8.982;2023-07-31T05:14:38;97530.88;;;13.80;100.00
79663;BME280;69130;48.724;8.982;2023-07-31T05:17:04;97501.88;;;13.89;100.00
79663;BME280;69130;48.724;8.982;2023-07-31T05:19:30;97503.19;;;13.96;100.00
79663;BME280;69130;48.724;8.982;2023-07-31T05:21:55;97468.38;;;13.87;100.00
79663;BME280;69130;48.724;8.982;2023-07-31T05:24:20;97485.00;;;13.76;100.00
79663;BME280;69130;48.724;8.982;2023-07-31T05:26:46;97493.38;;;13.70;100.00
79663;BME280;69130;48.724;8.982;2023-07-31T05:29:11;97491.94;;;13.79;100.00
79663;BME280;69130;48.724;8.982;2023-07-31T05:31:36;97489.91;;;13.96;100.00
79663;BME280;69130;48.724;8.982;2023-07-31T05:34:03;97460.41;;;14.26;100.00
79663;BME280;69130;48.724;8.982;2023-07-31T05:36:28;97422.44;;;14.10;100.00
79663;BME280;69130;48.724;8.982;2023-07-31T05:38:54;97413.72;;;14.21;100.00
79663;BME280;69130;48.724;8.982;2023-07-31T05:41:19;97405.91;;;14.32;100.00
79663;BME280;69130;48.724;8.982;2023-07-31T05:43:44;97391.00;;;14.29;100.00
79663;BME280;69130;48.724;8.982;2023-07-31T05:46:10;97378.97;;;14.36;100.00
79663;BME280;69130;48.724;8.982;2023-07-31T05:48:37;97302.47;;;14.51;100.00
79663;BME280;69130;48.724;8.982;2023-07-31T05:51:02;97258.94;;;14.52;100.00
79663;BME280;69130;48.724;8.982;2023-07-31T05:53:28;97220.53;;;14.54;100.00
79663;BME280;69130;48.724;8.982;2023-07-31T05:55:53;97206.69;;;14.62;100.00
79663;BME280;69130;48.724;8.982;2023-07-31T05:58:19;97152.25;;;14.66;100.00
79663;BME280;69130;48.724;8.982;2023-07-31T06:00:44;97149.00;;;14.73;100.00
79663;BME280;69130;48.724;8.982;2023-07-31T06:03:09;97134.78;;;14.85;100.00
79663;BME280;69130;48.724;8.982;2023-07-31T06:05:35;97095.44;;;14.89;100.00
79663;BME280;69130;48.724;8.982;2023-07-31T06:08:00;97072.06;;;14.93;100.00
79663;BME280;69130;48.724;8.982;2023-07-31T06:10:26;97059.22;;;14.98;100.00
79663;BME280;69130;48.724;8.982;2023-07-31T06:12:52;97033.94;;;15.14;100.00
79663;BME280;69130;48.724;8.982;2023-07-31T06:15:17;96958.59;;;15.34;100.00
79663;BME280;69130;48.724;8.982;2023-07-31T06:17:44;96929.72;;;15.39;100.00
79663;BME280;69130;48.724;8.982;2023-07-31T06:20:10;96864.25;;;15.57;100.00
79663;BME280;69130;48.724;8.982;2023-07-31T06:22:35;96805.78;;;15.65;100.00
79663;BME280;69130;48.724;8.982;2023-07-31T06:25:01;96723.28;;;15.73;100.00
79663;BME280;69130;48.724;8.982;2023-07-31T06:27:26;96749.25;;;15.71;100.00
79663;BME280;69130;48.724;8.982;2023-07-31T06:29:52;96722.06;;;15.78;100.00
79663;BME280;69130;48.724;8.982;2023-07-31T06:32:17;96694.72;;;15.85;100.00
79663;BME280;69130;48.724;8.982;2023-07-31T06:34:42;96662.53;;;16.07;100.00
79663;BME280;69130;48.724;8.982;2023-07-31T06:37:08;96640.47;;;16.35;100.00
79663;BME280;69130;48.724;8.982;2023-07-31T06:39:33;96579.31;;;16.42;100.00
79663;BME280;69130;48.724;8.982;2023-07-31T06:42:02;96542.38;;;16.47;100.00
79663;BME280;69130;48.724;8.982;2023-07-31T06:44:27;96492.91;;;16.62;100.00
79663;BME280;69130;48.724;8.982;2023-07-31T06:46:53;96497.28;;;16.73;100.00
79663;BME280;69130;48.724;8.982;2023-07-31T06:49:18;96514.72;;;16.86;100.00
79663;BME280;69130;48.724;8.982;2023-07-31T06:51:44;96498.69;;;16.86;100.00
79663;BME280;69130;48.724;8.982;2023-07-31T06:54:09;96490.09;;;16.64;100.00
79663;BME280;69130;48.724;8.982;2023-07-31T06:56:34;96486.75;;;16.71;100.00
79663;BME280;69130;48.724;8.982;2023-07-31T06:59:00;96462.53;;;16.73;100.00
79663;BME280;69130;48.724;8.982;2023-07-31T07:01:25;96439.88;;;17.32;100.00
79663;BME280;69130;48.724;8.982;2023-07-31T07:03:51;96414.69;;;17.72;100.00
79663;BME280;69130;48.724;8.982;2023-07-31T07:06:19;96399.25;;;17.83;100.00
79663;BME280;69130;48.724;8.982;2023-07-31T07:08:44;96323.22;;;17.94;100.00
79663;BME280;69130;48.724;8.982;2023-07-31T07:11:10;95878.53;;;18.13;100.00
79663;BME280;69130;48.724;8.982;2023-07-31T07:13:35;95828.50;;;18.21;100.00
79663;BME280;69130;48.724;8.982;2023-07-31T07:16:01;95808.41;;;18.33;100.00
79663;BME280;69130;48.724;8.982;2023-07-31T07:18:26;95802.38;;;18.31;100.00
79663;BME280;69130;48.724;8.982;2023-07-31T07:20:53;95796.22;;;18.23;100.00
79663;BME280;69130;48.724;8.982;2023-07-31T07:23:19;95823.13;;;17.97;100.00
79663;BME280;69130;48.724;8.982;2023-07-31T07:25:45;95825.44;;;17.92;100.00
79663;BME280;69130;48.724;8.982;2023-07-31T07:28:11;95836.13;;;17.84;100.00
79663;BME280;69130;48.724;8.982;2023-07-31T07:30:36;95847.44;;;17.62;100.00
79663;BME280;69130;48.724;8.982;2023-07-31T07:33:02;95853.63;;;17.63;100.00
79663;BME280;69130;48.724;8.982;2023-07-31T07:35:27;95846.75;;;17.60;100.00
79663;BME280;69130;48.724;8.982;2023-07-31T07:37:52;95841.28;;;17.62;100.00
79663;BME280;69130;48.724;8.982;2023-07-31T07:40:19;95845.28;;;17.58;100.00
79663;BME280;69130;48.724;8.982;2023-07-31T07:42:44;95842.19;;;17.94;100.00
79663;BME280;69130;48.724;8.982;2023-07-31T07:45:09;95852.06;;;18.02;100.00
79663;BME280;69130;48.724;8.982;2023-07-31T07:47:35;95840.22;;;18.28;100.00
79663;BME280;69130;48.724;8.982;2023-07-31T07:50:00;95826.16;;;18.75;100.00
79663;BME280;69130;48.724;8.982;2023-07-31T07:52:25;95809.34;;;19.05;100.00
79663;BME280;69130;48.724;8.982;2023-07-31T07:54:51;95822.00;;;18.72;100.00
79663;BME280;69130;48.724;8.982;2023-07-31T07:57:16;95816.16;;;19.24;100.00
79663;BME280;69130;48.724;8.982;2023-07-31T07:59:42;95800.94;;;20.16;100.00
79663;BME280;69130;48.724;8.982;2023-07-31T08:02:07;95804.25;;;20.26;100.00
79663;BME280;69130;48.724;8.982;2023-07-31T08:04:32;95819.28;;;20.35;100.00
79663;BME280;69130;48.724;8.982;2023-07-31T08:06:58;95840.00;;;20.27;100.00
79663;BME280;69130;48.724;8.982;2023-07-31T08:09:23;95859.50;;;19.90;100.00
79663;BME280;69130;48.724;8.982;2023-07-31T08:11:48;95866.16;;;20.33;100.00
79663;BME280;69130;48.724;8.982;2023-07-31T08:14:14;95887.31;;;19.97;100.00
79663;BME280;69130;48.724;8.982;2023-07-31T08:16:39;95871.34;;;20.34;100.00
79663;BME280;69130;48.724;8.982;2023-07-31T08:19:05;95887.31;;;19.97;100.00
79663;BME280;69130;48.724;8.982;2023-07-31T08:21:31;95883.78;;;20.35;100.00
79663;BME280;69130;48.724;8.982;2023-07-31T08:23:56;95886.19;;;20.30;100.00
79663;BME280;69130;48.724;8.982;2023-07-31T08:26:22;95880.00;;;20.44;100.00
79663;BME280;69130;48.724;8.982;2023-07-31T08:28:48;95882.19;;;20.18;100.00
79663;BME280;69130;48.724;8.982;2023-07-31T08:31:13;95890.50;;;19.62;100.00
79663;BME280;69130;48.724;8.982;2023-07-31T08:33:39;95885.19;;;19.46;100.00
79663;BME280;69130;48.724;8.982;2023-07-31T08:36:05;95877.88;;;19.24;100.00
79663;BME280;69130;48.724;8.982;2023-07-31T08:38:31;95873.31;;;19.32;100.00
79663;BME280;69130;48.724;8.982;2023-07-31T08:40:57;95876.22;;;18.90;100.00
79663;BME280;69130;48.724;8.982;2023-07-31T08:43:25;95885.97;;;18.59;100.00
79663;BME280;69130;48.724;8.982;2023-07-31T08:45:51;95858.00;;;18.86;100.00
79663;BME280;69130;48.724;8.982;2023-07-31T08:48:17;95843.59;;;19.42;100.00
79663;BME280;69130;48.724;8.982;2023-07-31T08:50:43;95834.53;;;19.81;100.00
79663;BME280;69130;48.724;8.982;2023-07-31T08:53:08;95828.66;;;19.86;100.00
79663;BME280;69130;48.724;8.982;2023-07-31T08:55:35;95825.31;;;20.37;100.00
79663;BME280;69130;48.724;8.982;2023-07-31T08:58:02;95831.53;;;20.75;100.00
79663;BME280;69130;48.724;8.982;2023-07-31T09:00:29;95853.47;;;20.64;100.00
79663;BME280;69130;48.724;8.982;2023-07-31T09:05:29;95853.06;;;20.75;100.00
79663;BME280;69130;48.724;8.982;2023-07-31T09:07:55;95835.91;;;21.28;100.00
79663;BME280;69130;48.724;8.982;2023-07-31T09:10:21;95828.75;;;21.64;100.00
79663;BME280;69130;48.724;8.982;2023-07-31T09:12:48;95850.94;;;21.66;100.00
79663;BME280;69130;48.724;8.982;2023-07-31T09:15:13;95868.41;;;21.55;100.00
79663;BME280;69130;48.724;8.982;2023-07-31T09:17:39;95903.06;;;21.07;100.00
79663;BME280;69130;48.724;8.982;2023-07-31T09:20:20;95915.00;;;20.36;100.00
79663;BME280;69130;48.724;8.982;2023-07-31T09:22:46;95897.22;;;20.58;100.00
79663;BME280;69130;48.724;8.982;2023-07-31T09:25:23;95893.78;;;20.19;100.00
79663;BME280;69130;48.724;8.982;2023-07-31T09:27:58;95893.69;;;20.04;100.00
79663;BME280;69130;48.724;8.982;2023-07-31T09:30:24;95895.47;;;19.81;100.00
79663;BME280;69130;48.724;8.982;2023-07-31T09:32:51;95887.56;;;19.79;100.00
79663;BME280;69130;48.724;8.982;2023-07-31T09:35:30;95873.91;;;19.58;100.00
79663;BME280;69130;48.724;8.982;2023-07-31T09:38:01;95839.28;;;20.55;100.00
79663;BME280;69130;48.724;8.982;2023-07-31T09:43:05;95834.03;;;20.39;100.00
79663;BME280;69130;48.724;8.982;2023-07-31T09:45:35;95833.53;;;20.58;100.00
79663;BME280;69130;48.724;8.982;2023-07-31T09:48:11;95833.44;;;20.89;100.00
79663;BME280;69130;48.724;8.982;2023-07-31T09:50:38;95831.56;;;20.52;100.00
79663;BME280;69130;48.724;8.982;2023-07-31T09:53:05;95830.34;;;20.77;100.00
79663;BME280;69130;48.724;8.982;2023-07-31T09:55:31;95822.63;;;21.12;100.00
79663;BME280;69130;48.724;8.982;2023-07-31T09:57:59;95809.50;;;21.67;100.00
79663;BME280;69130;48.724;8.982;2023-07-31T10:00:30;95820.19;;;21.75;100.00
79663;BME280;69130;48.724;8.982;2023-07-31T10:02:59;95821.38;;;21.72;100.00
79663;BME280;69130;48.724;8.982;2023-07-31T10:05:30;95830.81;;;21.33;100.00
79663;BME280;69130;48.724;8.982;2023-07-31T10:07:57;95819.38;;;21.60;100.00
79663;BME280;69130;48.724;8.982;2023-07-31T10:10:23;95844.25;;;21.47;100.00
79663;BME280;69130;48.724;8.982;2023-07-31T10:12:52;95858.63;;;21.69;100.00
79663;BME280;69130;48.724;8.982;2023-07-31T10:15:18;95862.72;;;21.80;100.00
79663;BME280;69130;48.724;8.982;2023-07-31T10:17:43;95873.97;;;21.83;100.00
79663;BME280;69130;48.724;8.982;2023-07-31T10:20:10;95853.19;;;22.70;100.00
79663;BME280;69130;48.724;8.982;2023-07-31T10:22:36;95862.81;;;22.58;100.00
79663;BME280;69130;48.724;8.982;2023-07-31T10:25:02;95866.00;;;23.10;100.00
79663;BME280;69130;48.724;8.982;2023-07-31T10:27:27;95870.91;;;23.00;100.00
79663;BME280;69130;48.724;8.982;2023-07-31T10:29:55;95884.22;;;22.80;100.00
79663;BME280;69130;48.724;8.982;2023-07-31T10:32:22;95889.88;;;22.49;100.00
79663;BME280;69130;48.724;8.982;2023-07-31T10:34:50;95871.03;;;22.92;100.00
79663;BME280;69130;48.724;8.982;2023-07-31T10:45:01;95877.78;;;23.02;100.00
79663;BME280;69130;48.724;8.982;2023-07-31T10:47:26;95878.09;;;22.72;100.00
79663;BME280;69130;48.724;8.982;2023-07-31T10:49:52;95883.19;;;22.45;100.00
79663;BME280;69130;48.724;8.982;2023-07-31T10:52:21;95889.53;;;22.17;100.00
79663;BME280;69130;48.724;8.982;2023-07-31T10:57:47;95882.41;;;21.36;100.00
79663;BME280;69130;48.724;8.982;2023-07-31T11:00:21;95873.13;;;21.24;100.00
79663;BME280;69130;48.724;8.982;2023-07-31T11:02:56;95861.81;;;21.29;100.00
79663;BME280;69130;48.724;8.982;2023-07-31T11:08:22;95843.16;;;21.13;100.00
79663;BME280;69130;48.724;8.982;2023-07-31T11:11:16;95840.53;;;21.05;100.00
79663;BME280;69130;48.724;8.982;2023-07-31T11:13:49;95846.03;;;20.88;100.00
79663;BME280;69130;48.724;8.982;2023-07-31T11:16:16;95845.66;;;20.77;100.00
79663;BME280;69130;48.724;8.982;2023-07-31T11:18:44;95843.72;;;20.85;100.00
79663;BME280;69130;48.724;8.982;2023-07-31T11:21:15;95838.97;;;20.73;100.00
79663;BME280;69130;48.724;8.982;2023-07-31T11:23:45;95831.75;;;20.51;100.00
79663;BME280;69130;48.724;8.982;2023-07-31T11:26:11;95831.47;;;20.46;100.00
79663;BME280;69130;48.724;8.982;2023-07-31T11:28:37;95829.38;;;20.33;100.00
79663;BME280;69130;48.724;8.982;2023-07-31T11:31:04;95825.97;;;20.39;100.00
79663;BME280;69130;48.724;8.982;2023-07-31T11:33:30;95816.31;;;20.30;100.00
79663;BME280;69130;48.724;8.982;2023-07-31T11:35:55;95813.31;;;20.48;100.00
79663;BME280;69130;48.724;8.982;2023-07-31T11:38:22;95805.91;;;20.50;100.00
79663;BME280;69130;48.724;8.982;2023-07-31T11:40:52;95807.94;;;20.48;100.00
79663;BME280;69130;48.724;8.982;2023-07-31T11:43:18;95798.78;;;20.57;100.00
79663;BME280;69130;48.724;8.982;2023-07-31T11:46:02;95795.38;;;20.40;100.00
79663;BME280;69130;48.724;8.982;2023-07-31T11:48:30;95800.94;;;20.39;100.00
79663;BME280;69130;48.724;8.982;2023-07-31T11:51:00;95789.78;;;20.27;100.00
79663;BME280;69130;48.724;8.982;2023-07-31T11:53:33;95790.81;;;20.26;100.00
79663;BME280;69130;48.724;8.982;2023-07-31T11:56:01;95777.41;;;20.18;100.00
79663;BME280;69130;48.724;8.982;2023-07-31T11:58:30;95762.31;;;20.40;100.00
79663;BME280;69130;48.724;8.982;2023-07-31T12:00:56;95762.56;;;20.30;100.00
79663;BME280;69130;48.724;8.982;2023-07-31T12:03:23;95759.13;;;20.36;100.00
79663;BME280;69130;48.724;8.982;2023-07-31T12:05:49;95761.41;;;20.47;100.00
79663;BME280;69130;48.724;8.982;2023-07-31T12:08:14;95766.59;;;20.49;100.00
79663;BME280;69130;48.724;8.982;2023-07-31T12:10:41;95774.91;;;20.39;100.00
79663;BME280;69130;48.724;8.982;2023-07-31T12:13:11;95779.50;;;20.31;100.00
79663;BME280;69130;48.724;8.982;2023-07-31T12:15:43;95784.31;;;20.13;100.00
79663;BME280;69130;48.724;8.982;2023-07-31T12:18:19;95789.41;;;20.08;100.00
79663;BME280;69130;48.724;8.982;2023-07-31T12:20:46;95794.47;;;20.02;100.00
79663;BME280;69130;48.724;8.982;2023-07-31T12:23:23;95780.56;;;19.99;100.00
79663;BME280;69130;48.724;8.982;2023-07-31T12:26:15;95774.66;;;20.03;100.00
79663;BME280;69130;48.724;8.982;2023-07-31T12:31:12;95764.28;;;20.00;100.00
79663;BME280;69130;48.724;8.982;2023-07-31T12:33:38;95754.94;;;20.11;100.00
79663;BME280;69130;48.724;8.982;2023-07-31T12:36:07;95751.72;;;20.16;100.00
79663;BME280;69130;48.724;8.982;2023-07-31T12:38:33;95734.72;;;20.23;100.00
79663;BME280;69130;48.724;8.982;2023-07-31T12:40:59;95726.81;;;20.44;100.00
79663;BME280;69130;48.724;8.982;2023-07-31T12:43:25;95727.38;;;20.54;100.00
79663;BME280;69130;48.724;8.982;2023-07-31T12:45:50;95726.94;;;20.65;100.00
79663;BME280;69130;48.724;8.982;2023-07-31T12:48:16;95725.25;;;20.94;100.00
79663;BME280;69130;48.724;8.982;2023-07-31T12:50:41;95716.38;;;21.22;100.00
79663;BME280;69130;48.724;8.982;2023-07-31T12:53:07;95709.66;;;21.47;100.00
79663;BME280;69130;48.724;8.982;2023-07-31T12:55:33;95700.81;;;21.53;100.00
79663;BME280;69130;48.724;8.982;2023-07-31T12:58:02;95712.25;;;21.77;100.00
79663;BME280;69130;48.724;8.982;2023-07-31T13:00:28;95711.25;;;21.78;100.00
79663;BME280;69130;48.724;8.982;2023-07-31T13:02:53;95726.75;;;21.76;100.00
79663;BME280;69130;48.724;8.982;2023-07-31T13:05:19;95728.16;;;21.86;100.00
79663;BME280;69130;48.724;8.982;2023-07-31T13:07:47;95733.53;;;21.86;100.00
79663;BME280;69130;48.724;8.982;2023-07-31T13:10:13;95724.81;;;22.05;100.00
79663;BME280;69130;48.724;8.982;2023-07-31T13:12:38;95716.22;;;21.95;100.00